sensor_id;sensor_type;location;lat;lon;timestamp;P1;durP1;ratioP1;P2;durP2;ratioP2
12871;SDS011;6504;53.766;9.626;2023-11-19T00:00:18;7.03;;;6.30;;
12871;SDS011;6504;53.766;9.626;2023-11-19T00:02:46;7.37;;;6.67;;
12871;SDS011;6504;53.766;9.626;2023-11-19T00:05:16;6.40;;;5.80;;
12871;SDS011;6504;53.766;9.626;2023-11-19T00:07:44;6.30;;;5.80;;
12871;SDS011;6504;53.766;9.626;2023-11-19T00:10:13;6.50;;;5.90;;
12871;SDS011;6504;53.766;9.626;2023-11-19T00:12:46;6.17;;;5.57;;
12871;SDS011;6504;53.766;9.626;2023-11-19T00:15:16;6.07;;;5.47;;
12871;SDS011;6504;53.766;9.626;2023-11-19T00:17:46;5.80;;;5.27;;
12871;SDS011;6504;53.766;9.626;2023-11-19T00:20:17;5.97;;;5.47;;
12871;SDS011;6504;53.766;9.626;2023-11-19T00:22:46;5.57;;;5.07;;
12871;SDS011;6504;53.766;9.626;2023-11-19T00:25:17;5.40;;;5.00;;
12871;SDS011;6504;53.766;9.626;2023-11-19T00:27:46;5.77;;;5.27;;
12871;SDS011;6504;53.766;9.626;2023-11-19T00:30:14;6.20;;;5.60;;
12871;SDS011;6504;53.766;9.626;2023-11-19T00:32:43;5.70;;;5.20;;
12871;SDS011;6504;53.766;9.626;2023-11-19T00:35:12;5.80;;;5.17;;
12871;SDS011;6504;53.766;9.626;2023-11-19T00:37:42;5.73;;;5.23;;
12871;SDS011;6504;53.766;9.626;2023-11-19T00:40:12;5.57;;;5.07;;
12871;SDS011;6504;53.766;9.626;2023-11-19T00:42:42;5.43;;;4.93;;
12871;SDS011;6504;53.766;9.626;2023-11-19T00:45:11;5.40;;;4.90;;
12871;SDS011;6504;53.766;9.626;2023-11-19T00:47:39;5.30;;;4.80;;
12871;SDS011;6504;53.766;9.626;2023-11-19T00:50:08;5.23;;;4.73;;
12871;SDS011;6504;53.766;9.626;2023-11-19T00:52:37;5.27;;;4.80;;
12871;SDS011;6504;53.766;9.626;2023-11-19T00:55:07;5.03;;;4.63;;
12871;SDS011;6504;53.766;9.626;2023-11-19T00:57:36;4.93;;;4.43;;
12871;SDS011;6504;53.766;9.626;2023-11-19T01:00:05;4.40;;;4.00;;
12871;SDS011;6504;53.766;9.626;2023-11-19T01:02:45;4.43;;;3.73;;
12871;SDS011;6504;53.766;9.626;2023-11-19T01:05:16;4.27;;;3.93;;
12871;SDS011;6504;53.766;9.626;2023-11-19T01:07:48;4.43;;;4.03;;
12871;SDS011;6504;53.766;9.626;2023-11-19T01:10:18;4.20;;;3.90;;
12871;SDS011;6504;53.766;9.626;2023-11-19T01:12:46;4.03;;;3.73;;
12871;SDS011;6504;53.766;9.626;2023-11-19T01:15:14;4.33;;;3.93;;
12871;SDS011;6504;53.766;9.626;2023-11-19T01:17:45;4.17;;;3.77;;
12871;SDS011;6504;53.766;9.626;2023-11-19T01:20:16;3.90;;;3.60;;
12871;SDS011;6504;53.766;9.626;2023-11-19T01:22:43;3.43;;;3.13;;
12871;SDS011;6504;53.766;9.626;2023-11-19T01:25:12;3.93;;;3.60;;
12871;SDS011;6504;53.766;9.626;2023-11-19T01:27:41;3.93;;;3.63;;
12871;SDS011;6504;53.766;9.626;2023-11-19T01:30:10;4.97;;;3.53;;
12871;SDS011;6504;53.766;9.626;2023-11-19T01:32:40;3.40;;;3.10;;
12871;SDS011;6504;53.766;9.626;2023-11-19T01:35:08;3.43;;;3.13;;
12871;SDS011;6504;53.766;9.626;2023-11-19T01:37:36;3.40;;;3.10;;
12871;SDS011;6504;53.766;9.626;2023-11-19T01:40:04;3.53;;;3.23;;
12871;SDS011;6504;53.766;9.626;2023-11-19T01:42:37;3.50;;;3.20;;
12871;SDS011;6504;53.766;9.626;2023-11-19T01:45:07;3.30;;;3.10;;
12871;SDS011;6504;53.766;9.626;2023-11-19T01:47:37;3.67;;;3.20;;
12871;SDS011;6504;53.766;9.626;2023-11-19T01:50:06;4.03;;;3.00;;
12871;SDS011;6504;53.766;9.626;2023-11-19T01:52:35;3.67;;;3.10;;
12871;SDS011;6504;53.766;9.626;2023-11-19T01:55:04;3.67;;;3.37;;
12871;SDS011;6504;53.766;9.626;2023-11-19T01:57:33;4.20;;;2.90;;
12871;SDS011;6504;53.766;9.626;2023-11-19T02:00:04;3.77;;;3.17;;
12871;SDS011;6504;53.766;9.626;2023-11-19T02:02:38;3.67;;;3.33;;
12871;SDS011;6504;53.766;9.626;2023-11-19T02:05:07;3.37;;;3.07;;
12871;SDS011;6504;53.766;9.626;2023-11-19T02:07:36;2.90;;;2.70;;
12871;SDS011;6504;53.766;9.626;2023-11-19T02:10:04;3.13;;;2.80;;
12871;SDS011;6504;53.766;9.626;2023-11-19T02:12:39;2.47;;;2.27;;
12871;SDS011;6504;53.766;9.626;2023-11-19T02:15:10;2.40;;;2.20;;
12871;SDS011;6504;53.766;9.626;2023-11-19T02:17:39;2.57;;;2.37;;
12871;SDS011;6504;53.766;9.626;2023-11-19T02:20:07;2.57;;;2.20;;
12871;SDS011;6504;53.766;9.626;2023-11-19T02:22:38;2.80;;;2.17;;
12871;SDS011;6504;53.766;9.626;2023-11-19T02:25:07;2.13;;;1.93;;
12871;SDS011;6504;53.766;9.626;2023-11-19T02:27:48;2.00;;;1.77;;
12871;SDS011;6504;53.766;9.626;2023-11-19T02:30:23;1.70;;;1.60;;
12871;SDS011;6504;53.766;9.626;2023-11-19T02:32:53;2.00;;;1.40;;
12871;SDS011;6504;53.766;9.626;2023-11-19T02:35:23;1.73;;;1.60;;
12871;SDS011;6504;53.766;9.626;2023-11-19T02:37:52;1.60;;;1.50;;
12871;SDS011;6504;53.766;9.626;2023-11-19T02:40:21;1.70;;;1.60;;
12871;SDS011;6504;53.766;9.626;2023-11-19T02:42:52;1.47;;;1.37;;
12871;SDS011;6504;53.766;9.626;2023-11-19T02:45:22;1.70;;;1.60;;
12871;SDS011;6504;53.766;9.626;2023-11-19T02:47:50;1.70;;;1.60;;
12871;SDS011;6504;53.766;9.626;2023-11-19T02:50:19;1.93;;;1.73;;
12871;SDS011;6504;53.766;9.626;2023-11-19T02:52:52;1.57;;;1.47;;
12871;SDS011;6504;53.766;9.626;2023-11-19T02:55:23;1.73;;;1.63;;
12871;SDS011;6504;53.766;9.626;2023-11-19T02:58:01;1.67;;;1.57;;
12871;SDS011;6504;53.766;9.626;2023-11-19T03:00:35;1.90;;;1.80;;
12871;SDS011;6504;53.766;9.626;2023-11-19T03:03:08;2.30;;;2.10;;
12871;SDS011;6504;53.766;9.626;2023-11-19T03:05:46;1.80;;;1.70;;
12871;SDS011;6504;53.766;9.626;2023-11-19T03:08:14;1.70;;;1.60;;
12871;SDS011;6504;53.766;9.626;2023-11-19T03:10:46;1.80;;;1.70;;
12871;SDS011;6504;53.766;9.626;2023-11-19T03:13:15;2.23;;;1.70;;
12871;SDS011;6504;53.766;9.626;2023-11-19T03:15:44;2.40;;;2.20;;
12871;SDS011;6504;53.766;9.626;2023-11-19T03:18:12;2.47;;;2.27;;
12871;SDS011;6504;53.766;9.626;2023-11-19T03:20:41;3.03;;;2.83;;
12871;SDS011;6504;53.766;9.626;2023-11-19T03:23:09;3.13;;;2.93;;
12871;SDS011;6504;53.766;9.626;2023-11-19T03:25:37;3.93;;;3.63;;
12871;SDS011;6504;53.766;9.626;2023-11-19T03:28:05;4.63;;;4.23;;
12871;SDS011;6504;53.766;9.626;2023-11-19T03:30:34;5.07;;;4.67;;
12871;SDS011;6504;53.766;9.626;2023-11-19T03:33:03;5.37;;;4.97;;
12871;SDS011;6504;53.766;9.626;2023-11-19T03:35:31;5.80;;;5.30;;
12871;SDS011;6504;53.766;9.626;2023-11-19T03:38:00;5.43;;;5.03;;
12871;SDS011;6504;53.766;9.626;2023-11-19T03:40:29;7.73;;;7.00;;
12871;SDS011;6504;53.766;9.626;2023-11-19T03:42:57;7.93;;;7.23;;
12871;SDS011;6504;53.766;9.626;2023-11-19T03:45:25;8.23;;;7.50;;
12871;SDS011;6504;53.766;9.626;2023-11-19T03:47:54;7.87;;;7.17;;
12871;SDS011;6504;53.766;9.626;2023-11-19T03:50:23;8.93;;;8.13;;
12871;SDS011;6504;53.766;9.626;2023-11-19T03:52:51;9.73;;;8.83;;
12871;SDS011;6504;53.766;9.626;2023-11-19T03:55:20;10.10;;;9.10;;
12871;SDS011;6504;53.766;9.626;2023-11-19T03:57:48;10.27;;;9.27;;
12871;SDS011;6504;53.766;9.626;2023-11-19T04:00:17;10.80;;;9.70;;
12871;SDS011;6504;53.766;9.626;2023-11-19T04:02:47;11.63;;;10.50;;
12871;SDS011;6504;53.766;9.626;2023-11-19T04:05:17;11.80;;;10.60;;
12871;SDS011;6504;53.766;9.626;2023-11-19T04:07:46;12.00;;;10.80;;
12871;SDS011;6504;53.766;9.626;2023-11-19T04:10:14;12.00;;;10.80;;
12871;SDS011;6504;53.766;9.626;2023-11-19T04:12:43;12.70;;;11.40;;
12871;SDS011;6504;53.766;9.626;2023-11-19T04:15:11;12.73;;;11.43;;
12871;SDS011;6504;53.766;9.626;2023-11-19T04:17:39;13.00;;;11.40;;
12871;SDS011;6504;53.766;9.626;2023-11-19T04:20:08;13.90;;;12.10;;
12871;SDS011;6504;53.766;9.626;2023-11-19T04:22:39;14.13;;;12.63;;
12871;SDS011;6504;53.766;9.626;2023-11-19T04:25:08;14.70;;;12.40;;
12871;SDS011;6504;53.766;9.626;2023-11-19T04:27:37;15.60;;;13.00;;
12871;SDS011;6504;53.766;9.626;2023-11-19T04:30:06;17.40;;;14.07;;
12871;SDS011;6504;53.766;9.626;2023-11-19T04:32:37;16.80;;;13.73;;
12871;SDS011;6504;53.766;9.626;2023-11-19T04:35:06;18.60;;;14.37;;
12871;SDS011;6504;53.766;9.626;2023-11-19T04:37:37;19.00;;;14.93;;
12871;SDS011;6504;53.766;9.626;2023-11-19T04:40:07;18.23;;;14.57;;
12871;SDS011;6504;53.766;9.626;2023-11-19T04:42:36;19.47;;;14.87;;
12871;SDS011;6504;53.766;9.626;2023-11-19T04:45:06;21.40;;;15.27;;
12871;SDS011;6504;53.766;9.626;2023-11-19T04:47:36;22.27;;;15.83;;
12871;SDS011;6504;53.766;9.626;2023-11-19T04:50:05;23.63;;;17.17;;
12871;SDS011;6504;53.766;9.626;2023-11-19T04:52:37;26.90;;;18.10;;
12871;SDS011;6504;53.766;9.626;2023-11-19T04:55:10;27.47;;;17.50;;
12871;SDS011;6504;53.766;9.626;2023-11-19T04:57:39;28.77;;;18.77;;
12871;SDS011;6504;53.766;9.626;2023-11-19T05:00:07;30.40;;;20.23;;
12871;SDS011;6504;53.766;9.626;2023-11-19T05:02:40;32.10;;;19.40;;
12871;SDS011;6504;53.766;9.626;2023-11-19T05:05:08;29.50;;;19.87;;
12871;SDS011;6504;53.766;9.626;2023-11-19T05:07:37;32.13;;;21.23;;
12871;SDS011;6504;53.766;9.626;2023-11-19T05:10:05;28.93;;;19.90;;
12871;SDS011;6504;53.766;9.626;2023-11-19T05:12:36;37.13;;;21.73;;
12871;SDS011;6504;53.766;9.626;2023-11-19T05:15:05;35.93;;;22.27;;
12871;SDS011;6504;53.766;9.626;2023-11-19T05:17:34;37.87;;;24.03;;
12871;SDS011;6504;53.766;9.626;2023-11-19T05:20:04;42.43;;;23.83;;
12871;SDS011;6504;53.766;9.626;2023-11-19T05:22:39;45.47;;;24.40;;
12871;SDS011;6504;53.766;9.626;2023-11-19T05:25:08;48.00;;;26.17;;
12871;SDS011;6504;53.766;9.626;2023-11-19T05:27:38;49.60;;;25.70;;
12871;SDS011;6504;53.766;9.626;2023-11-19T05:30:07;46.63;;;25.27;;
12871;SDS011;6504;53.766;9.626;2023-11-19T05:32:36;49.63;;;25.07;;
12871;SDS011;6504;53.766;9.626;2023-11-19T05:35:05;47.37;;;25.63;;
12871;SDS011;6504;53.766;9.626;2023-11-19T05:37:34;54.33;;;25.30;;
12871;SDS011;6504;53.766;9.626;2023-11-19T05:40:03;48.27;;;24.33;;
12871;SDS011;6504;53.766;9.626;2023-11-19T05:42:39;43.70;;;23.70;;
12871;SDS011;6504;53.766;9.626;2023-11-19T05:45:08;45.53;;;23.70;;
12871;SDS011;6504;53.766;9.626;2023-11-19T05:47:38;46.30;;;23.50;;
12871;SDS011;6504;53.766;9.626;2023-11-19T05:50:06;47.97;;;24.00;;
12871;SDS011;6504;53.766;9.626;2023-11-19T05:52:35;51.97;;;24.07;;
12871;SDS011;6504;53.766;9.626;2023-11-19T05:55:03;41.83;;;21.57;;
12871;SDS011;6504;53.766;9.626;2023-11-19T05:57:36;48.23;;;22.47;;
12871;SDS011;6504;53.766;9.626;2023-11-19T06:00:14;43.20;;;21.97;;
12871;SDS011;6504;53.766;9.626;2023-11-19T06:02:44;49.83;;;22.30;;
12871;SDS011;6504;53.766;9.626;2023-11-19T06:05:12;44.37;;;22.13;;
12871;SDS011;6504;53.766;9.626;2023-11-19T06:07:40;41.47;;;22.10;;
12871;SDS011;6504;53.766;9.626;2023-11-19T06:10:08;41.80;;;21.57;;
12871;SDS011;6504;53.766;9.626;2023-11-19T06:12:37;43.80;;;20.50;;
12871;SDS011;6504;53.766;9.626;2023-11-19T06:15:08;44.67;;;19.87;;
12871;SDS011;6504;53.766;9.626;2023-11-19T06:17:39;35.93;;;16.70;;
12871;SDS011;6504;53.766;9.626;2023-11-19T06:20:07;42.67;;;16.97;;
12871;SDS011;6504;53.766;9.626;2023-11-19T06:22:38;41.90;;;16.67;;
12871;SDS011;6504;53.766;9.626;2023-11-19T06:25:06;40.23;;;15.77;;
12871;SDS011;6504;53.766;9.626;2023-11-19T06:27:35;33.37;;;14.17;;
12871;SDS011;6504;53.766;9.626;2023-11-19T06:30:03;39.07;;;14.43;;
12871;SDS011;6504;53.766;9.626;2023-11-19T06:32:32;39.70;;;14.17;;
12871;SDS011;6504;53.766;9.626;2023-11-19T06:35:02;41.47;;;13.43;;
12871;SDS011;6504;53.766;9.626;2023-11-19T06:37:30;43.30;;;13.83;;
12871;SDS011;6504;53.766;9.626;2023-11-19T06:39:59;40.27;;;12.90;;
12871;SDS011;6504;53.766;9.626;2023-11-19T06:42:27;39.67;;;12.97;;
12871;SDS011;6504;53.766;9.626;2023-11-19T06:44:56;43.33;;;13.43;;
12871;SDS011;6504;53.766;9.626;2023-11-19T06:47:25;34.63;;;13.13;;
12871;SDS011;6504;53.766;9.626;2023-11-19T06:49:54;39.60;;;13.60;;
12871;SDS011;6504;53.766;9.626;2023-11-19T06:52:24;40.77;;;12.77;;
12871;SDS011;6504;53.766;9.626;2023-11-19T06:54:52;46.90;;;13.57;;
12871;SDS011;6504;53.766;9.626;2023-11-19T06:57:33;47.37;;;12.53;;
12871;SDS011;6504;53.766;9.626;2023-11-19T07:00:01;39.90;;;12.60;;
12871;SDS011;6504;53.766;9.626;2023-11-19T07:02:31;37.37;;;12.07;;
12871;SDS011;6504;53.766;9.626;2023-11-19T07:05:00;31.60;;;11.87;;
12871;SDS011;6504;53.766;9.626;2023-11-19T07:07:32;43.07;;;11.70;;
12871;SDS011;6504;53.766;9.626;2023-11-19T07:10:00;35.40;;;10.93;;
12871;SDS011;6504;53.766;9.626;2023-11-19T07:12:28;34.00;;;11.40;;
12871;SDS011;6504;53.766;9.626;2023-11-19T07:14:56;39.03;;;10.97;;
12871;SDS011;6504;53.766;9.626;2023-11-19T07:17:24;32.13;;;10.30;;
12871;SDS011;6504;53.766;9.626;2023-11-19T07:19:53;34.27;;;10.60;;
12871;SDS011;6504;53.766;9.626;2023-11-19T07:22:26;36.10;;;10.53;;
12871;SDS011;6504;53.766;9.626;2023-11-19T07:24:57;30.23;;;9.93;;
12871;SDS011;6504;53.766;9.626;2023-11-19T07:27:25;33.20;;;9.63;;
12871;SDS011;6504;53.766;9.626;2023-11-19T07:29:54;35.47;;;9.80;;
12871;SDS011;6504;53.766;9.626;2023-11-19T07:32:22;38.00;;;10.33;;
12871;SDS011;6504;53.766;9.626;2023-11-19T07:34:50;34.13;;;9.50;;
12871;SDS011;6504;53.766;9.626;2023-11-19T07:37:18;32.57;;;9.30;;
12871;SDS011;6504;53.766;9.626;2023-11-19T07:39:46;30.03;;;9.07;;
12871;SDS011;6504;53.766;9.626;2023-11-19T07:42:16;33.57;;;8.87;;
12871;SDS011;6504;53.766;9.626;2023-11-19T07:44:44;34.60;;;8.83;;
12871;SDS011;6504;53.766;9.626;2023-11-19T07:47:12;28.53;;;8.07;;
12871;SDS011;6504;53.766;9.626;2023-11-19T07:49:40;37.13;;;9.40;;
12871;SDS011;6504;53.766;9.626;2023-11-19T07:52:11;29.53;;;8.43;;
12871;SDS011;6504;53.766;9.626;2023-11-19T07:54:42;35.47;;;8.73;;
12871;SDS011;6504;53.766;9.626;2023-11-19T07:57:10;32.17;;;8.23;;
12871;SDS011;6504;53.766;9.626;2023-11-19T07:59:39;28.77;;;8.67;;
12871;SDS011;6504;53.766;9.626;2023-11-19T08:02:08;34.23;;;9.07;;
12871;SDS011;6504;53.766;9.626;2023-11-19T08:04:36;30.53;;;7.87;;
12871;SDS011;6504;53.766;9.626;2023-11-19T08:07:06;32.70;;;8.37;;
12871;SDS011;6504;53.766;9.626;2023-11-19T08:09:34;32.53;;;7.80;;
12871;SDS011;6504;53.766;9.626;2023-11-19T08:12:04;35.00;;;7.83;;
12871;SDS011;6504;53.766;9.626;2023-11-19T08:14:33;28.53;;;8.30;;
12871;SDS011;6504;53.766;9.626;2023-11-19T08:17:02;29.70;;;7.27;;
12871;SDS011;6504;53.766;9.626;2023-11-19T08:19:31;30.63;;;7.80;;
12871;SDS011;6504;53.766;9.626;2023-11-19T08:21:59;33.80;;;8.63;;
12871;SDS011;6504;53.766;9.626;2023-11-19T08:24:27;32.23;;;8.00;;
12871;SDS011;6504;53.766;9.626;2023-11-19T08:26:56;32.60;;;7.17;;
12871;SDS011;6504;53.766;9.626;2023-11-19T08:29:26;26.47;;;7.60;;
12871;SDS011;6504;53.766;9.626;2023-11-19T08:31:55;36.87;;;8.67;;
12871;SDS011;6504;53.766;9.626;2023-11-19T08:34:24;36.03;;;8.13;;
12871;SDS011;6504;53.766;9.626;2023-11-19T08:36:52;30.93;;;8.03;;
12871;SDS011;6504;53.766;9.626;2023-11-19T08:39:21;33.23;;;7.63;;
12871;SDS011;6504;53.766;9.626;2023-11-19T08:41:49;26.60;;;6.90;;
12871;SDS011;6504;53.766;9.626;2023-11-19T08:44:17;26.70;;;7.20;;
12871;SDS011;6504;53.766;9.626;2023-11-19T08:46:47;26.17;;;6.90;;
12871;SDS011;6504;53.766;9.626;2023-11-19T08:49:15;32.13;;;7.07;;
12871;SDS011;6504;53.766;9.626;2023-11-19T08:51:45;29.20;;;7.60;;
12871;SDS011;6504;53.766;9.626;2023-11-19T08:54:13;30.47;;;7.67;;
12871;SDS011;6504;53.766;9.626;2023-11-19T08:56:41;30.90;;;6.87;;
12871;SDS011;6504;53.766;9.626;2023-11-19T08:59:09;25.60;;;7.30;;
12871;SDS011;6504;53.766;9.626;2023-11-19T09:01:37;32.83;;;7.60;;
12871;SDS011;6504;53.766;9.626;2023-11-19T09:04:05;33.10;;;8.30;;
12871;SDS011;6504;53.766;9.626;2023-11-19T09:06:35;37.47;;;8.07;;
12871;SDS011;6504;53.766;9.626;2023-11-19T09:09:04;29.47;;;7.47;;
12871;SDS011;6504;53.766;9.626;2023-11-19T09:11:33;36.40;;;7.83;;
12871;SDS011;6504;53.766;9.626;2023-11-19T09:14:04;30.57;;;7.73;;
12871;SDS011;6504;53.766;9.626;2023-11-19T09:16:32;35.70;;;8.13;;
12871;SDS011;6504;53.766;9.626;2023-11-19T09:19:00;32.23;;;7.33;;
12871;SDS011;6504;53.766;9.626;2023-11-19T09:21:32;26.03;;;7.23;;
12871;SDS011;6504;53.766;9.626;2023-11-19T09:24:01;38.87;;;8.10;;
12871;SDS011;6504;53.766;9.626;2023-11-19T09:26:30;27.87;;;7.30;;
12871;SDS011;6504;53.766;9.626;2023-11-19T09:28:58;35.10;;;8.67;;
12871;SDS011;6504;53.766;9.626;2023-11-19T09:31:26;25.17;;;7.13;;
12871;SDS011;6504;53.766;9.626;2023-11-19T09:33:54;34.73;;;7.23;;
12871;SDS011;6504;53.766;9.626;2023-11-19T09:36:22;35.53;;;8.60;;
12871;SDS011;6504;53.766;9.626;2023-11-19T09:38:52;32.33;;;7.60;;
12871;SDS011;6504;53.766;9.626;2023-11-19T09:41:20;31.30;;;7.50;;
12871;SDS011;6504;53.766;9.626;2023-11-19T09:43:49;33.00;;;7.93;;
12871;SDS011;6504;53.766;9.626;2023-11-19T09:46:18;33.77;;;7.43;;
12871;SDS011;6504;53.766;9.626;2023-11-19T09:48:51;35.67;;;8.60;;
12871;SDS011;6504;53.766;9.626;2023-11-19T09:51:21;29.67;;;8.17;;
12871;SDS011;6504;53.766;9.626;2023-11-19T09:53:49;29.87;;;8.17;;
12871;SDS011;6504;53.766;9.626;2023-11-19T09:56:17;33.27;;;8.27;;
12871;SDS011;6504;53.766;9.626;2023-11-19T09:58:46;35.27;;;7.77;;
12871;SDS011;6504;53.766;9.626;2023-11-19T10:01:16;33.97;;;9.33;;
12871;SDS011;6504;53.766;9.626;2023-11-19T10:03:54;34.63;;;8.57;;
12871;SDS011;6504;53.766;9.626;2023-11-19T10:06:24;26.77;;;7.80;;
12871;SDS011;6504;53.766;9.626;2023-11-19T10:08:53;33.83;;;8.33;;
12871;SDS011;6504;53.766;9.626;2023-11-19T10:11:21;31.87;;;7.43;;
12871;SDS011;6504;53.766;9.626;2023-11-19T10:13:50;31.80;;;7.07;;
12871;SDS011;6504;53.766;9.626;2023-11-19T10:16:27;33.80;;;7.63;;
12871;SDS011;6504;53.766;9.626;2023-11-19T10:18:56;32.10;;;6.67;;
12871;SDS011;6504;53.766;9.626;2023-11-19T10:21:24;26.80;;;6.73;;
12871;SDS011;6504;53.766;9.626;2023-11-19T10:23:54;34.50;;;8.07;;
12871;SDS011;6504;53.766;9.626;2023-11-19T10:26:26;34.80;;;8.00;;
12871;SDS011;6504;53.766;9.626;2023-11-19T10:28:55;29.03;;;7.20;;
12871;SDS011;6504;53.766;9.626;2023-11-19T10:31:25;33.40;;;7.23;;
12871;SDS011;6504;53.766;9.626;2023-11-19T10:33:53;23.37;;;6.37;;
12871;SDS011;6504;53.766;9.626;2023-11-19T10:36:22;30.10;;;7.13;;
12871;SDS011;6504;53.766;9.626;2023-11-19T10:39:04;30.90;;;6.83;;
12871;SDS011;6504;53.766;9.626;2023-11-19T10:41:32;33.07;;;7.17;;
12871;SDS011;6504;53.766;9.626;2023-11-19T10:44:00;31.37;;;7.57;;
12871;SDS011;6504;53.766;9.626;2023-11-19T10:46:39;31.77;;;7.23;;
12871;SDS011;6504;53.766;9.626;2023-11-19T10:49:08;31.70;;;7.60;;
12871;SDS011;6504;53.766;9.626;2023-11-19T10:51:37;33.67;;;7.97;;
12871;SDS011;6504;53.766;9.626;2023-11-19T10:54:12;25.50;;;6.83;;
12871;SDS011;6504;53.766;9.626;2023-11-19T10:56:42;24.10;;;7.43;;
12871;SDS011;6504;53.766;9.626;2023-11-19T10:59:16;31.77;;;7.17;;
12871;SDS011;6504;53.766;9.626;2023-11-19T11:01:53;29.67;;;6.87;;
12871;SDS011;6504;53.766;9.626;2023-11-19T11:04:22;33.93;;;8.40;;
12871;SDS011;6504;53.766;9.626;2023-11-19T11:06:52;31.13;;;7.30;;
12871;SDS011;6504;53.766;9.626;2023-11-19T11:09:21;30.83;;;7.07;;
12871;SDS011;6504;53.766;9.626;2023-11-19T11:11:50;34.27;;;7.17;;
12871;SDS011;6504;53.766;9.626;2023-11-19T11:14:20;34.47;;;7.40;;
12871;SDS011;6504;53.766;9.626;2023-11-19T11:16:49;33.87;;;8.13;;
12871;SDS011;6504;53.766;9.626;2023-11-19T11:19:20;34.40;;;8.30;;
12871;SDS011;6504;53.766;9.626;2023-11-19T11:21:49;39.83;;;8.37;;
12871;SDS011;6504;53.766;9.626;2023-11-19T11:24:24;35.90;;;7.90;;
12871;SDS011;6504;53.766;9.626;2023-11-19T11:27:30;34.57;;;7.67;;
12871;SDS011;6504;53.766;9.626;2023-11-19T11:30:20;27.73;;;6.83;;
12871;SDS011;6504;53.766;9.626;2023-11-19T11:33:04;29.43;;;6.87;;
12871;SDS011;6504;53.766;9.626;2023-11-19T11:35:46;31.27;;;6.67;;
12871;SDS011;6504;53.766;9.626;2023-11-19T11:38:22;29.23;;;6.90;;
12871;SDS011;6504;53.766;9.626;2023-11-19T11:43:47;27.03;;;6.93;;
12871;SDS011;6504;53.766;9.626;2023-11-19T11:49:28;25.43;;;5.83;;
12871;SDS011;6504;53.766;9.626;2023-11-19T11:51:59;24.67;;;5.70;;
12871;SDS011;6504;53.766;9.626;2023-11-19T11:54:28;27.87;;;5.93;;
12871;SDS011;6504;53.766;9.626;2023-11-19T11:57:05;22.53;;;5.37;;
12871;SDS011;6504;53.766;9.626;2023-11-19T11:59:43;21.97;;;6.03;;
12871;SDS011;6504;53.766;9.626;2023-11-19T12:02:14;29.67;;;7.23;;
12871;SDS011;6504;53.766;9.626;2023-11-19T12:04:46;29.57;;;7.13;;
12871;SDS011;6504;53.766;9.626;2023-11-19T12:07:18;33.23;;;8.23;;
12871;SDS011;6504;53.766;9.626;2023-11-19T12:09:48;36.20;;;7.67;;
12871;SDS011;6504;53.766;9.626;2023-11-19T12:12:20;30.27;;;6.60;;
12871;SDS011;6504;53.766;9.626;2023-11-19T12:15:01;29.80;;;7.40;;
12871;SDS011;6504;53.766;9.626;2023-11-19T12:17:41;38.43;;;7.33;;
12871;SDS011;6504;53.766;9.626;2023-11-19T12:20:16;34.50;;;8.00;;
12871;SDS011;6504;53.766;9.626;2023-11-19T12:22:49;29.80;;;7.77;;
12871;SDS011;6504;53.766;9.626;2023-11-19T12:25:19;28.03;;;6.97;;
12871;SDS011;6504;53.766;9.626;2023-11-19T12:27:49;29.80;;;7.17;;
12871;SDS011;6504;53.766;9.626;2023-11-19T12:30:21;29.13;;;6.47;;
12871;SDS011;6504;53.766;9.626;2023-11-19T12:32:50;26.97;;;6.87;;
12871;SDS011;6504;53.766;9.626;2023-11-19T12:35:21;34.20;;;7.37;;
12871;SDS011;6504;53.766;9.626;2023-11-19T12:37:51;30.10;;;7.50;;
12871;SDS011;6504;53.766;9.626;2023-11-19T12:40:21;31.03;;;7.47;;
12871;SDS011;6504;53.766;9.626;2023-11-19T12:42:50;32.47;;;6.90;;
12871;SDS011;6504;53.766;9.626;2023-11-19T12:45:20;26.90;;;8.40;;
12871;SDS011;6504;53.766;9.626;2023-11-19T12:47:50;26.53;;;6.47;;
12871;SDS011;6504;53.766;9.626;2023-11-19T12:53:19;27.23;;;6.73;;
12871;SDS011;6504;53.766;9.626;2023-11-19T12:55:48;27.60;;;7.80;;
12871;SDS011;6504;53.766;9.626;2023-11-19T12:58:28;26.03;;;6.80;;
12871;SDS011;6504;53.766;9.626;2023-11-19T13:01:00;33.10;;;7.10;;
12871;SDS011;6504;53.766;9.626;2023-11-19T13:03:30;29.60;;;8.17;;
12871;SDS011;6504;53.766;9.626;2023-11-19T13:06:04;29.70;;;6.87;;
12871;SDS011;6504;53.766;9.626;2023-11-19T13:08:39;28.90;;;7.10;;
12871;SDS011;6504;53.766;9.626;2023-11-19T13:11:08;29.17;;;6.23;;
12871;SDS011;6504;53.766;9.626;2023-11-19T13:13:55;36.13;;;7.20;;
12871;SDS011;6504;53.766;9.626;2023-11-19T13:16:24;23.80;;;5.93;;
12871;SDS011;6504;53.766;9.626;2023-11-19T13:18:53;30.90;;;7.40;;
12871;SDS011;6504;53.766;9.626;2023-11-19T13:21:23;25.57;;;6.70;;
12871;SDS011;6504;53.766;9.626;2023-11-19T13:23:53;28.47;;;7.27;;
12871;SDS011;6504;53.766;9.626;2023-11-19T13:26:21;27.37;;;6.53;;
12871;SDS011;6504;53.766;9.626;2023-11-19T13:28:49;25.23;;;6.40;;
12871;SDS011;6504;53.766;9.626;2023-11-19T13:31:17;25.37;;;6.20;;
12871;SDS011;6504;53.766;9.626;2023-11-19T13:33:46;24.67;;;6.33;;
12871;SDS011;6504;53.766;9.626;2023-11-19T13:36:14;28.33;;;7.13;;
12871;SDS011;6504;53.766;9.626;2023-11-19T13:38:43;24.40;;;7.40;;
12871;SDS011;6504;53.766;9.626;2023-11-19T13:41:13;24.77;;;6.17;;
12871;SDS011;6504;53.766;9.626;2023-11-19T13:43:41;28.50;;;6.10;;
12871;SDS011;6504;53.766;9.626;2023-11-19T13:46:09;24.67;;;6.40;;
12871;SDS011;6504;53.766;9.626;2023-11-19T13:48:37;28.93;;;6.60;;
12871;SDS011;6504;53.766;9.626;2023-11-19T13:51:06;30.47;;;6.90;;
12871;SDS011;6504;53.766;9.626;2023-11-19T13:53:36;27.27;;;6.13;;
12871;SDS011;6504;53.766;9.626;2023-11-19T13:56:08;25.83;;;7.30;;
12871;SDS011;6504;53.766;9.626;2023-11-19T13:58:38;25.30;;;6.40;;
12871;SDS011;6504;53.766;9.626;2023-11-19T14:01:07;24.77;;;6.07;;
12871;SDS011;6504;53.766;9.626;2023-11-19T14:03:35;23.27;;;6.67;;
12871;SDS011;6504;53.766;9.626;2023-11-19T14:06:04;27.77;;;6.63;;
12871;SDS011;6504;53.766;9.626;2023-11-19T14:08:34;25.33;;;6.40;;
12871;SDS011;6504;53.766;9.626;2023-11-19T14:11:03;25.17;;;6.17;;
12871;SDS011;6504;53.766;9.626;2023-11-19T14:13:31;27.17;;;5.80;;
12871;SDS011;6504;53.766;9.626;2023-11-19T14:16:02;19.70;;;4.60;;
12871;SDS011;6504;53.766;9.626;2023-11-19T14:18:33;18.80;;;5.53;;
12871;SDS011;6504;53.766;9.626;2023-11-19T14:21:02;16.37;;;3.97;;
12871;SDS011;6504;53.766;9.626;2023-11-19T14:23:31;14.63;;;3.70;;
12871;SDS011;6504;53.766;9.626;2023-11-19T14:25:59;12.10;;;3.97;;
12871;SDS011;6504;53.766;9.626;2023-11-19T14:28:27;10.53;;;3.43;;
12871;SDS011;6504;53.766;9.626;2023-11-19T14:30:55;12.10;;;3.37;;
12871;SDS011;6504;53.766;9.626;2023-11-19T14:33:25;13.13;;;3.50;;
12871;SDS011;6504;53.766;9.626;2023-11-19T14:35:53;14.23;;;3.40;;
12871;SDS011;6504;53.766;9.626;2023-11-19T14:38:21;13.47;;;2.77;;
12871;SDS011;6504;53.766;9.626;2023-11-19T14:40:49;10.73;;;2.97;;
12871;SDS011;6504;53.766;9.626;2023-11-19T14:43:17;11.03;;;3.03;;
12871;SDS011;6504;53.766;9.626;2023-11-19T14:45:45;9.37;;;3.13;;
12871;SDS011;6504;53.766;9.626;2023-11-19T14:48:16;8.63;;;2.60;;
12871;SDS011;6504;53.766;9.626;2023-11-19T14:50:46;8.07;;;2.73;;
12871;SDS011;6504;53.766;9.626;2023-11-19T14:53:14;8.37;;;2.43;;
12871;SDS011;6504;53.766;9.626;2023-11-19T14:55:42;7.03;;;1.87;;
12871;SDS011;6504;53.766;9.626;2023-11-19T14:58:10;6.63;;;2.13;;
12871;SDS011;6504;53.766;9.626;2023-11-19T15:00:42;5.73;;;1.60;;
12871;SDS011;6504;53.766;9.626;2023-11-19T15:03:11;3.40;;;1.80;;
12871;SDS011;6504;53.766;9.626;2023-11-19T15:05:40;4.30;;;1.50;;
12871;SDS011;6504;53.766;9.626;2023-11-19T15:08:09;4.17;;;1.50;;
12871;SDS011;6504;53.766;9.626;2023-11-19T15:10:37;3.87;;;1.53;;
12871;SDS011;6504;53.766;9.626;2023-11-19T15:13:05;4.87;;;1.40;;